14Y

Todd Field Airport

Long Prairie, Minnesota, USA
METAR K14Y 210935Z AUTO 01003KT 10SM OVC005 16/15 A3004 RMK AO2
Observed Flight Rules
Jul-21 @ 09:35 UTC (24 minutes ago) Instrument Flight Rules
Wind Visibility Clouds
10° at 3 knots 10 miles
  • Overcast at 500' AGL
Temperatures Readings
Current 16°C / 61°F
Dewpoint 15°C / 59°F
Humidity 94%
Altimeter 30.04" Hg
Pressure 1017 hPa
Elevation 406
METAR K14Y 210935Z AUTO 01003KT 10SM OVC005 16/15 A3004 RMK AO2
Observed Flight Rules
Jul-21 @ 09:35 UTC
(24 minutes ago)
IFR
Wind Visibility
10° at 3 knots 10 miles
Clouds
  • Overcast at 500' AGL
Temperature Dewpoint
16°C / 61°F 15°C / 59°F
Humidity Altimeter Pressure
94% 30.04" Hg 1017 hPa